sensor_id;sensor_type;location;lat;lon;timestamp;temperature;humidity
30379;DHT22;17168;49.164;9.060;2024-02-16T00:00:46;12.00;89.00
30379;DHT22;17168;49.164;9.060;2024-02-16T00:03:18;12.00;89.50
30379;DHT22;17168;49.164;9.060;2024-02-16T00:05:50;12.00;89.90
30379;DHT22;17168;49.164;9.060;2024-02-16T00:08:23;12.00;90.20
30379;DHT22;17168;49.164;9.060;2024-02-16T00:10:55;12.00;90.30
30379;DHT22;17168;49.164;9.060;2024-02-16T00:13:30;11.90;90.50
30379;DHT22;17168;49.164;9.060;2024-02-16T00:16:03;11.90;90.70
30379;DHT22;17168;49.164;9.060;2024-02-16T00:18:35;11.90;90.80
30379;DHT22;17168;49.164;9.060;2024-02-16T00:21:08;11.80;90.90
30379;DHT22;17168;49.164;9.060;2024-02-16T00:23:40;11.80;91.00
30379;DHT22;17168;49.164;9.060;2024-02-16T00:26:12;11.80;91.20
30379;DHT22;17168;49.164;9.060;2024-02-16T00:28:47;11.80;91.50
30379;DHT22;17168;49.164;9.060;2024-02-16T00:31:20;11.80;91.70
30379;DHT22;17168;49.164;9.060;2024-02-16T00:33:52;11.80;91.80
30379;DHT22;17168;49.164;9.060;2024-02-16T00:36:26;11.80;92.00
30379;DHT22;17168;49.164;9.060;2024-02-16T00:38:58;11.80;92.20
30379;DHT22;17168;49.164;9.060;2024-02-16T00:41:31;11.80;92.50
30379;DHT22;17168;49.164;9.060;2024-02-16T00:44:05;11.70;92.70
30379;DHT22;17168;49.164;9.060;2024-02-16T00:46:38;11.70;92.90
30379;DHT22;17168;49.164;9.060;2024-02-16T00:49:10;11.70;93.10
30379;DHT22;17168;49.164;9.060;2024-02-16T00:51:42;11.70;93.20
30379;DHT22;17168;49.164;9.060;2024-02-16T00:54:15;11.70;93.50
30379;DHT22;17168;49.164;9.060;2024-02-16T00:56:47;11.70;93.40
30379;DHT22;17168;49.164;9.060;2024-02-16T00:59:23;11.70;93.60
30379;DHT22;17168;49.164;9.060;2024-02-16T01:01:56;11.70;93.70
30379;DHT22;17168;49.164;9.060;2024-02-16T01:04:28;11.60;93.90
30379;DHT22;17168;49.164;9.060;2024-02-16T01:07:02;11.60;94.20
30379;DHT22;17168;49.164;9.060;2024-02-16T01:09:35;11.60;94.70
30379;DHT22;17168;49.164;9.060;2024-02-16T01:12:07;11.60;94.60
30379;DHT22;17168;49.164;9.060;2024-02-16T01:14:42;11.60;94.80
30379;DHT22;17168;49.164;9.060;2024-02-16T01:17:14;11.50;95.00
30379;DHT22;17168;49.164;9.060;2024-02-16T01:19:47;11.50;95.10
30379;DHT22;17168;49.164;9.060;2024-02-16T01:22:19;11.50;95.30
30379;DHT22;17168;49.164;9.060;2024-02-16T01:24:51;11.50;95.40
30379;DHT22;17168;49.164;9.060;2024-02-16T01:27:23;11.50;95.60
30379;DHT22;17168;49.164;9.060;2024-02-16T01:29:58;11.50;95.70
30379;DHT22;17168;49.164;9.060;2024-02-16T01:32:30;11.50;95.90
30379;DHT22;17168;49.164;9.060;2024-02-16T01:35:03;11.50;96.10
30379;DHT22;17168;49.164;9.060;2024-02-16T01:37:35;11.40;96.20
30379;DHT22;17168;49.164;9.060;2024-02-16T01:40:09;11.40;96.50
30379;DHT22;17168;49.164;9.060;2024-02-16T01:42:47;11.40;96.70
30379;DHT22;17168;49.164;9.060;2024-02-16T01:45:22;11.40;96.80
30379;DHT22;17168;49.164;9.060;2024-02-16T01:47:55;11.40;96.80
30379;DHT22;17168;49.164;9.060;2024-02-16T01:50:27;11.30;96.90
30379;DHT22;17168;49.164;9.060;2024-02-16T01:53:01;11.30;97.20
30379;DHT22;17168;49.164;9.060;2024-02-16T01:55:33;11.30;97.40
30379;DHT22;17168;49.164;9.060;2024-02-16T01:58:05;11.30;97.70
30379;DHT22;17168;49.164;9.060;2024-02-16T02:00:42;11.30;97.90
30379;DHT22;17168;49.164;9.060;2024-02-16T02:03:14;11.30;98.20
30379;DHT22;17168;49.164;9.060;2024-02-16T02:05:48;11.30;98.30
30379;DHT22;17168;49.164;9.060;2024-02-16T02:08:22;11.30;98.30
30379;DHT22;17168;49.164;9.060;2024-02-16T02:10:54;11.30;98.40
30379;DHT22;17168;49.164;9.060;2024-02-16T02:13:27;11.30;98.50
30379;DHT22;17168;49.164;9.060;2024-02-16T02:16:03;11.30;98.60
30379;DHT22;17168;49.164;9.060;2024-02-16T02:18:37;11.30;98.90
30379;DHT22;17168;49.164;9.060;2024-02-16T02:21:09;11.30;99.00
30379;DHT22;17168;49.164;9.060;2024-02-16T02:23:44;11.20;99.00
30379;DHT22;17168;49.164;9.060;2024-02-16T02:26:18;11.20;99.10
30379;DHT22;17168;49.164;9.060;2024-02-16T02:28:50;11.20;99.20
30379;DHT22;17168;49.164;9.060;2024-02-16T02:31:22;11.20;99.40
30379;DHT22;17168;49.164;9.060;2024-02-16T02:33:54;11.30;99.60
30379;DHT22;17168;49.164;9.060;2024-02-16T02:36:27;11.20;99.80
30379;DHT22;17168;49.164;9.060;2024-02-16T02:39:02;11.20;99.80
30379;DHT22;17168;49.164;9.060;2024-02-16T02:41:34;11.20;99.90
30379;DHT22;17168;49.164;9.060;2024-02-16T02:44:06;11.20;99.90
30379;DHT22;17168;49.164;9.060;2024-02-16T02:46:38;11.20;99.90
30379;DHT22;17168;49.164;9.060;2024-02-16T02:49:11;11.20;99.90
30379;DHT22;17168;49.164;9.060;2024-02-16T02:51:43;11.20;99.90
30379;DHT22;17168;49.164;9.060;2024-02-16T02:54:18;11.20;99.90
30379;DHT22;17168;49.164;9.060;2024-02-16T02:56:50;11.20;99.90
30379;DHT22;17168;49.164;9.060;2024-02-16T02:59:22;11.20;99.90
30379;DHT22;17168;49.164;9.060;2024-02-16T03:01:54;11.20;99.90
30379;DHT22;17168;49.164;9.060;2024-02-16T03:04:27;11.20;99.90
30379;DHT22;17168;49.164;9.060;2024-02-16T03:06:59;11.20;99.90
30379;DHT22;17168;49.164;9.060;2024-02-16T03:09:34;11.20;99.90
30379;DHT22;17168;49.164;9.060;2024-02-16T03:12:06;11.20;99.90
30379;DHT22;17168;49.164;9.060;2024-02-16T03:14:40;11.10;99.90
30379;DHT22;17168;49.164;9.060;2024-02-16T03:17:12;11.10;99.90
30379;DHT22;17168;49.164;9.060;2024-02-16T03:19:44;11.10;99.90
30379;DHT22;17168;49.164;9.060;2024-02-16T03:22:17;11.10;99.90
30379;DHT22;17168;49.164;9.060;2024-02-16T03:24:52;11.10;99.90
30379;DHT22;17168;49.164;9.060;2024-02-16T03:27:24;11.00;99.90
30379;DHT22;17168;49.164;9.060;2024-02-16T03:29:56;11.00;99.90
30379;DHT22;17168;49.164;9.060;2024-02-16T03:32:28;11.00;99.90
30379;DHT22;17168;49.164;9.060;2024-02-16T03:35:01;11.00;99.90
30379;DHT22;17168;49.164;9.060;2024-02-16T03:37:33;11.00;99.90
30379;DHT22;17168;49.164;9.060;2024-02-16T03:40:09;10.90;99.90
30379;DHT22;17168;49.164;9.060;2024-02-16T03:42:43;10.90;99.90
30379;DHT22;17168;49.164;9.060;2024-02-16T03:45:15;10.90;99.90
30379;DHT22;17168;49.164;9.060;2024-02-16T03:47:48;10.90;99.90
30379;DHT22;17168;49.164;9.060;2024-02-16T03:50:21;10.90;99.90
30379;DHT22;17168;49.164;9.060;2024-02-16T03:52:54;10.80;99.90
30379;DHT22;17168;49.164;9.060;2024-02-16T03:55:29;10.80;99.90
30379;DHT22;17168;49.164;9.060;2024-02-16T03:58:03;10.90;99.90
30379;DHT22;17168;49.164;9.060;2024-02-16T04:00:36;10.90;99.90
30379;DHT22;17168;49.164;9.060;2024-02-16T04:03:08;10.80;99.90
30379;DHT22;17168;49.164;9.060;2024-02-16T04:05:41;10.90;99.90
30379;DHT22;17168;49.164;9.060;2024-02-16T04:08:13;10.90;99.90
30379;DHT22;17168;49.164;9.060;2024-02-16T04:10:48;10.80;99.90
30379;DHT22;17168;49.164;9.060;2024-02-16T04:13:20;10.80;99.90
30379;DHT22;17168;49.164;9.060;2024-02-16T04:15:53;10.80;99.90
30379;DHT22;17168;49.164;9.060;2024-02-16T04:18:26;10.80;99.90
30379;DHT22;17168;49.164;9.060;2024-02-16T04:20:58;10.90;99.90
30379;DHT22;17168;49.164;9.060;2024-02-16T04:23:31;10.90;99.90
30379;DHT22;17168;49.164;9.060;2024-02-16T04:26:06;10.80;99.90
30379;DHT22;17168;49.164;9.060;2024-02-16T04:28:39;10.80;99.90
30379;DHT22;17168;49.164;9.060;2024-02-16T04:31:12;10.90;99.90
30379;DHT22;17168;49.164;9.060;2024-02-16T04:33:44;10.80;99.90
30379;DHT22;17168;49.164;9.060;2024-02-16T04:36:16;10.80;99.90
30379;DHT22;17168;49.164;9.060;2024-02-16T04:38:49;10.80;99.90
30379;DHT22;17168;49.164;9.060;2024-02-16T04:41:23;10.80;99.90
30379;DHT22;17168;49.164;9.060;2024-02-16T04:43:56;10.80;99.90
30379;DHT22;17168;49.164;9.060;2024-02-16T04:46:28;10.80;99.90
30379;DHT22;17168;49.164;9.060;2024-02-16T04:49:00;10.80;99.90
30379;DHT22;17168;49.164;9.060;2024-02-16T04:51:33;10.80;99.90
30379;DHT22;17168;49.164;9.060;2024-02-16T04:54:05;10.80;99.90
30379;DHT22;17168;49.164;9.060;2024-02-16T04:56:40;10.70;99.90
30379;DHT22;17168;49.164;9.060;2024-02-16T04:59:12;10.70;99.90
30379;DHT22;17168;49.164;9.060;2024-02-16T05:01:44;10.60;99.90
30379;DHT22;17168;49.164;9.060;2024-02-16T05:04:17;10.50;99.90
30379;DHT22;17168;49.164;9.060;2024-02-16T05:06:49;10.50;99.90
30379;DHT22;17168;49.164;9.060;2024-02-16T05:09:24;10.50;99.90
30379;DHT22;17168;49.164;9.060;2024-02-16T05:12:01;10.50;99.90
30379;DHT22;17168;49.164;9.060;2024-02-16T05:14:34;10.40;99.90
30379;DHT22;17168;49.164;9.060;2024-02-16T05:17:07;10.40;99.90
30379;DHT22;17168;49.164;9.060;2024-02-16T05:19:39;10.40;99.90
30379;DHT22;17168;49.164;9.060;2024-02-16T05:22:11;10.30;99.90
30379;DHT22;17168;49.164;9.060;2024-02-16T05:24:44;10.30;99.90
30379;DHT22;17168;49.164;9.060;2024-02-16T05:27:19;10.20;99.90
30379;DHT22;17168;49.164;9.060;2024-02-16T05:29:51;10.20;99.90
30379;DHT22;17168;49.164;9.060;2024-02-16T05:32:24;10.10;99.90
30379;DHT22;17168;49.164;9.060;2024-02-16T05:34:56;10.10;99.90
30379;DHT22;17168;49.164;9.060;2024-02-16T05:37:28;10.10;99.90
30379;DHT22;17168;49.164;9.060;2024-02-16T05:40:00;10.00;99.90
30379;DHT22;17168;49.164;9.060;2024-02-16T05:42:54;10.00;99.90
30379;DHT22;17168;49.164;9.060;2024-02-16T05:45:26;9.90;99.90
30379;DHT22;17168;49.164;9.060;2024-02-16T05:47:59;9.90;99.90
30379;DHT22;17168;49.164;9.060;2024-02-16T05:50:31;9.90;99.90
30379;DHT22;17168;49.164;9.060;2024-02-16T05:53:04;9.90;99.90
30379;DHT22;17168;49.164;9.060;2024-02-16T05:55:37;9.80;99.90
30379;DHT22;17168;49.164;9.060;2024-02-16T05:58:11;9.80;99.90
30379;DHT22;17168;49.164;9.060;2024-02-16T06:00:44;9.80;99.90
30379;DHT22;17168;49.164;9.060;2024-02-16T06:03:19;9.70;99.90
30379;DHT22;17168;49.164;9.060;2024-02-16T06:05:51;9.70;99.90
30379;DHT22;17168;49.164;9.060;2024-02-16T06:08:24;9.60;99.90
30379;DHT22;17168;49.164;9.060;2024-02-16T06:11:00;9.60;99.90
30379;DHT22;17168;49.164;9.060;2024-02-16T06:13:36;9.50;99.90
30379;DHT22;17168;49.164;9.060;2024-02-16T06:16:09;9.50;99.90
30379;DHT22;17168;49.164;9.060;2024-02-16T06:18:41;9.40;99.90
30379;DHT22;17168;49.164;9.060;2024-02-16T06:21:14;9.40;99.90
30379;DHT22;17168;49.164;9.060;2024-02-16T06:23:47;9.40;99.90
30379;DHT22;17168;49.164;9.060;2024-02-16T06:26:20;9.40;99.90
30379;DHT22;17168;49.164;9.060;2024-02-16T06:28:55;9.30;99.90
30379;DHT22;17168;49.164;9.060;2024-02-16T06:31:27;9.30;99.90
30379;DHT22;17168;49.164;9.060;2024-02-16T06:33:59;9.30;99.90
30379;DHT22;17168;49.164;9.060;2024-02-16T06:36:31;9.30;99.90
30379;DHT22;17168;49.164;9.060;2024-02-16T06:39:04;9.20;99.90
30379;DHT22;17168;49.164;9.060;2024-02-16T06:41:36;9.20;99.90
30379;DHT22;17168;49.164;9.060;2024-02-16T06:44:12;9.20;99.90
30379;DHT22;17168;49.164;9.060;2024-02-16T06:46:44;9.10;99.90
30379;DHT22;17168;49.164;9.060;2024-02-16T06:49:16;9.10;99.90
30379;DHT22;17168;49.164;9.060;2024-02-16T06:51:48;9.10;99.90
30379;DHT22;17168;49.164;9.060;2024-02-16T06:54:21;9.10;99.90
30379;DHT22;17168;49.164;9.060;2024-02-16T06:56:53;9.10;99.90
30379;DHT22;17168;49.164;9.060;2024-02-16T06:59:28;9.00;99.90
30379;DHT22;17168;49.164;9.060;2024-02-16T07:02:00;9.10;99.90
30379;DHT22;17168;49.164;9.060;2024-02-16T07:04:32;9.00;99.90
30379;DHT22;17168;49.164;9.060;2024-02-16T07:07:04;9.00;99.90
30379;DHT22;17168;49.164;9.060;2024-02-16T07:09:38;9.00;99.90
30379;DHT22;17168;49.164;9.060;2024-02-16T07:12:11;9.00;99.90
30379;DHT22;17168;49.164;9.060;2024-02-16T07:14:47;8.90;99.90
30379;DHT22;17168;49.164;9.060;2024-02-16T07:17:22;8.90;99.90
30379;DHT22;17168;49.164;9.060;2024-02-16T07:19:54;8.90;99.90
30379;DHT22;17168;49.164;9.060;2024-02-16T07:22:26;8.90;99.90
30379;DHT22;17168;49.164;9.060;2024-02-16T07:24:58;8.90;99.90
30379;DHT22;17168;49.164;9.060;2024-02-16T07:27:32;8.90;99.90
30379;DHT22;17168;49.164;9.060;2024-02-16T07:30:09;8.90;99.90
30379;DHT22;17168;49.164;9.060;2024-02-16T07:32:43;8.90;99.90
30379;DHT22;17168;49.164;9.060;2024-02-16T07:35:21;8.90;99.90
30379;DHT22;17168;49.164;9.060;2024-02-16T07:37:56;8.90;99.90
30379;DHT22;17168;49.164;9.060;2024-02-16T07:40:28;8.90;99.90
30379;DHT22;17168;49.164;9.060;2024-02-16T07:43:01;8.90;99.90
30379;DHT22;17168;49.164;9.060;2024-02-16T07:45:36;8.90;99.90
30379;DHT22;17168;49.164;9.060;2024-02-16T07:48:08;8.90;99.90
30379;DHT22;17168;49.164;9.060;2024-02-16T07:50:40;9.00;99.90
30379;DHT22;17168;49.164;9.060;2024-02-16T07:53:13;9.00;99.90
30379;DHT22;17168;49.164;9.060;2024-02-16T07:55:45;9.10;99.90
30379;DHT22;17168;49.164;9.060;2024-02-16T07:58:17;9.10;99.90
30379;DHT22;17168;49.164;9.060;2024-02-16T08:00:52;9.20;99.90
30379;DHT22;17168;49.164;9.060;2024-02-16T08:03:27;9.30;99.90
30379;DHT22;17168;49.164;9.060;2024-02-16T08:05:59;9.30;99.90
30379;DHT22;17168;49.164;9.060;2024-02-16T08:08:32;9.40;99.90
30379;DHT22;17168;49.164;9.060;2024-02-16T08:11:04;9.50;99.90
30379;DHT22;17168;49.164;9.060;2024-02-16T08:13:37;9.50;99.90
30379;DHT22;17168;49.164;9.060;2024-02-16T08:16:12;9.60;99.90
30379;DHT22;17168;49.164;9.060;2024-02-16T08:18:44;9.70;99.90
30379;DHT22;17168;49.164;9.060;2024-02-16T08:21:17;9.70;99.90
30379;DHT22;17168;49.164;9.060;2024-02-16T08:23:50;9.80;99.90
30379;DHT22;17168;49.164;9.060;2024-02-16T08:26:22;9.90;99.90
30379;DHT22;17168;49.164;9.060;2024-02-16T08:28:54;10.00;99.90
30379;DHT22;17168;49.164;9.060;2024-02-16T08:31:29;10.00;99.90
30379;DHT22;17168;49.164;9.060;2024-02-16T08:34:01;10.10;99.90
30379;DHT22;17168;49.164;9.060;2024-02-16T08:36:37;10.20;99.90
30379;DHT22;17168;49.164;9.060;2024-02-16T08:39:11;10.20;99.90
30379;DHT22;17168;49.164;9.060;2024-02-16T08:41:46;10.30;99.90
30379;DHT22;17168;49.164;9.060;2024-02-16T08:44:20;10.40;99.90
30379;DHT22;17168;49.164;9.060;2024-02-16T08:46:55;10.50;99.90
30379;DHT22;17168;49.164;9.060;2024-02-16T08:49:27;10.50;99.90
30379;DHT22;17168;49.164;9.060;2024-02-16T08:51:59;10.60;99.90
30379;DHT22;17168;49.164;9.060;2024-02-16T08:54:31;10.70;99.90
30379;DHT22;17168;49.164;9.060;2024-02-16T08:57:04;10.80;99.90
30379;DHT22;17168;49.164;9.060;2024-02-16T08:59:37;10.90;99.90
30379;DHT22;17168;49.164;9.060;2024-02-16T09:02:12;11.00;99.90
30379;DHT22;17168;49.164;9.060;2024-02-16T09:04:46;11.10;99.90
30379;DHT22;17168;49.164;9.060;2024-02-16T09:07:19;11.20;99.90
30379;DHT22;17168;49.164;9.060;2024-02-16T09:09:51;11.30;99.90
30379;DHT22;17168;49.164;9.060;2024-02-16T09:12:23;11.40;99.90
30379;DHT22;17168;49.164;9.060;2024-02-16T09:14:55;11.50;99.90
30379;DHT22;17168;49.164;9.060;2024-02-16T09:17:31;11.60;99.90
30379;DHT22;17168;49.164;9.060;2024-02-16T09:20:04;11.70;99.90
30379;DHT22;17168;49.164;9.060;2024-02-16T09:22:36;11.80;99.90
30379;DHT22;17168;49.164;9.060;2024-02-16T09:25:09;11.90;99.90
30379;DHT22;17168;49.164;9.060;2024-02-16T09:27:41;12.00;99.90
30379;DHT22;17168;49.164;9.060;2024-02-16T09:30:17;12.10;99.90
30379;DHT22;17168;49.164;9.060;2024-02-16T09:32:53;12.20;99.90
30379;DHT22;17168;49.164;9.060;2024-02-16T09:35:26;12.30;99.90
30379;DHT22;17168;49.164;9.060;2024-02-16T09:37:59;12.40;99.90
30379;DHT22;17168;49.164;9.060;2024-02-16T09:40:31;12.50;99.90
30379;DHT22;17168;49.164;9.060;2024-02-16T09:43:04;12.50;99.90
30379;DHT22;17168;49.164;9.060;2024-02-16T09:45:37;12.60;99.90
30379;DHT22;17168;49.164;9.060;2024-02-16T09:48:12;12.70;99.90
30379;DHT22;17168;49.164;9.060;2024-02-16T09:50:45;12.80;99.90
30379;DHT22;17168;49.164;9.060;2024-02-16T09:53:19;12.90;99.90
30379;DHT22;17168;49.164;9.060;2024-02-16T09:55:55;13.00;99.90
30379;DHT22;17168;49.164;9.060;2024-02-16T09:58:27;13.10;99.90
30379;DHT22;17168;49.164;9.060;2024-02-16T10:01:02;13.20;99.90
30379;DHT22;17168;49.164;9.060;2024-02-16T10:03:37;13.30;99.90
30379;DHT22;17168;49.164;9.060;2024-02-16T10:06:10;13.40;99.90
30379;DHT22;17168;49.164;9.060;2024-02-16T10:08:47;13.50;99.90
30379;DHT22;17168;49.164;9.060;2024-02-16T10:11:49;13.60;99.90
30379;DHT22;17168;49.164;9.060;2024-02-16T10:14:21;13.80;99.90
30379;DHT22;17168;49.164;9.060;2024-02-16T10:17:00;14.00;99.90
30379;DHT22;17168;49.164;9.060;2024-02-16T10:19:33;14.10;99.90
30379;DHT22;17168;49.164;9.060;2024-02-16T10:22:14;14.20;99.90
30379;DHT22;17168;49.164;9.060;2024-02-16T10:24:46;14.30;99.90
30379;DHT22;17168;49.164;9.060;2024-02-16T10:27:21;14.40;99.90
30379;DHT22;17168;49.164;9.060;2024-02-16T10:29:54;14.50;99.90
30379;DHT22;17168;49.164;9.060;2024-02-16T10:32:27;14.60;99.90
30379;DHT22;17168;49.164;9.060;2024-02-16T10:35:00;14.60;99.90
30379;DHT22;17168;49.164;9.060;2024-02-16T10:37:32;14.60;99.90
30379;DHT22;17168;49.164;9.060;2024-02-16T10:40:07;14.70;99.90
30379;DHT22;17168;49.164;9.060;2024-02-16T10:42:45;14.70;99.90
30379;DHT22;17168;49.164;9.060;2024-02-16T10:45:17;14.80;99.90
30379;DHT22;17168;49.164;9.060;2024-02-16T10:47:51;14.80;99.90
30379;DHT22;17168;49.164;9.060;2024-02-16T10:50:23;14.90;99.90
30379;DHT22;17168;49.164;9.060;2024-02-16T10:52:58;14.90;99.90
30379;DHT22;17168;49.164;9.060;2024-02-16T10:55:33;14.90;99.90
30379;DHT22;17168;49.164;9.060;2024-02-16T10:58:10;15.00;99.90
30379;DHT22;17168;49.164;9.060;2024-02-16T11:00:53;15.10;99.90
30379;DHT22;17168;49.164;9.060;2024-02-16T11:03:26;15.20;99.90
30379;DHT22;17168;49.164;9.060;2024-02-16T11:06:00;15.30;99.60
30379;DHT22;17168;49.164;9.060;2024-02-16T11:08:38;15.40;99.60
30379;DHT22;17168;49.164;9.060;2024-02-16T11:11:10;15.50;98.10
30379;DHT22;17168;49.164;9.060;2024-02-16T11:13:48;15.50;96.80
30379;DHT22;17168;49.164;9.060;2024-02-16T11:16:20;15.60;94.50
30379;DHT22;17168;49.164;9.060;2024-02-16T11:18:54;15.70;93.20
30379;DHT22;17168;49.164;9.060;2024-02-16T11:21:26;15.70;92.60
30379;DHT22;17168;49.164;9.060;2024-02-16T11:24:06;15.80;91.90
30379;DHT22;17168;49.164;9.060;2024-02-16T11:26:44;15.80;87.50
30379;DHT22;17168;49.164;9.060;2024-02-16T11:29:20;15.70;82.50
30379;DHT22;17168;49.164;9.060;2024-02-16T11:31:53;15.80;81.50
30379;DHT22;17168;49.164;9.060;2024-02-16T11:34:25;15.70;80.70
30379;DHT22;17168;49.164;9.060;2024-02-16T11:36:59;15.70;81.10
30379;DHT22;17168;49.164;9.060;2024-02-16T11:39:32;15.70;81.00
30379;DHT22;17168;49.164;9.060;2024-02-16T11:42:11;15.70;81.60
30379;DHT22;17168;49.164;9.060;2024-02-16T11:44:53;15.80;82.20
30379;DHT22;17168;49.164;9.060;2024-02-16T11:47:27;15.80;81.80
30379;DHT22;17168;49.164;9.060;2024-02-16T11:50:03;15.90;82.50
30379;DHT22;17168;49.164;9.060;2024-02-16T11:52:35;16.10;82.00
30379;DHT22;17168;49.164;9.060;2024-02-16T11:55:08;16.30;82.20
30379;DHT22;17168;49.164;9.060;2024-02-16T11:57:41;16.70;82.30
30379;DHT22;17168;49.164;9.060;2024-02-16T12:00:16;16.80;81.60
30379;DHT22;17168;49.164;9.060;2024-02-16T12:02:59;17.00;78.50
30379;DHT22;17168;49.164;9.060;2024-02-16T12:05:31;17.00;77.60
30379;DHT22;17168;49.164;9.060;2024-02-16T12:08:05;17.10;76.20
30379;DHT22;17168;49.164;9.060;2024-02-16T12:10:38;17.10;76.50
30379;DHT22;17168;49.164;9.060;2024-02-16T12:13:10;17.00;76.30
30379;DHT22;17168;49.164;9.060;2024-02-16T12:15:46;17.10;75.60
30379;DHT22;17168;49.164;9.060;2024-02-16T12:18:20;17.20;75.90
30379;DHT22;17168;49.164;9.060;2024-02-16T12:20:59;17.20;76.50
30379;DHT22;17168;49.164;9.060;2024-02-16T12:23:32;17.20;76.80
30379;DHT22;17168;49.164;9.060;2024-02-16T12:26:04;17.30;75.70
30379;DHT22;17168;49.164;9.060;2024-02-16T12:28:36;17.30;75.40
30379;DHT22;17168;49.164;9.060;2024-02-16T12:31:18;17.30;75.00
30379;DHT22;17168;49.164;9.060;2024-02-16T12:33:50;17.20;76.10
30379;DHT22;17168;49.164;9.060;2024-02-16T12:36:23;17.20;77.00
30379;DHT22;17168;49.164;9.060;2024-02-16T12:38:55;17.30;77.30
30379;DHT22;17168;49.164;9.060;2024-02-16T12:41:27;17.40;77.50
30379;DHT22;17168;49.164;9.060;2024-02-16T12:44:00;17.50;75.90
30379;DHT22;17168;49.164;9.060;2024-02-16T12:46:35;17.50;75.90
30379;DHT22;17168;49.164;9.060;2024-02-16T12:49:07;17.50;75.80
30379;DHT22;17168;49.164;9.060;2024-02-16T12:51:40;17.50;75.40
30379;DHT22;17168;49.164;9.060;2024-02-16T12:54:12;17.40;75.50
30379;DHT22;17168;49.164;9.060;2024-02-16T12:56:47;17.30;76.10
30379;DHT22;17168;49.164;9.060;2024-02-16T12:59:20;17.20;76.50
30379;DHT22;17168;49.164;9.060;2024-02-16T13:01:55;17.10;76.80
30379;DHT22;17168;49.164;9.060;2024-02-16T13:04:27;17.00;76.70
30379;DHT22;17168;49.164;9.060;2024-02-16T13:07:03;16.90;77.00
30379;DHT22;17168;49.164;9.060;2024-02-16T13:09:36;16.80;77.10
30379;DHT22;17168;49.164;9.060;2024-02-16T13:12:08;16.70;77.50
30379;DHT22;17168;49.164;9.060;2024-02-16T13:14:40;16.70;78.40
30379;DHT22;17168;49.164;9.060;2024-02-16T13:17:15;16.60;78.20
30379;DHT22;17168;49.164;9.060;2024-02-16T13:19:47;16.60;78.60
30379;DHT22;17168;49.164;9.060;2024-02-16T13:22:20;16.60;78.90
30379;DHT22;17168;49.164;9.060;2024-02-16T13:24:52;16.50;79.90
30379;DHT22;17168;49.164;9.060;2024-02-16T13:27:24;16.50;80.30
30379;DHT22;17168;49.164;9.060;2024-02-16T13:29:57;16.50;80.70
30379;DHT22;17168;49.164;9.060;2024-02-16T13:32:32;16.60;81.10
30379;DHT22;17168;49.164;9.060;2024-02-16T13:35:05;16.60;80.40
30379;DHT22;17168;49.164;9.060;2024-02-16T13:37:37;16.60;81.20
30379;DHT22;17168;49.164;9.060;2024-02-16T13:40:11;16.60;81.00
30379;DHT22;17168;49.164;9.060;2024-02-16T13:42:44;16.60;81.20
30379;DHT22;17168;49.164;9.060;2024-02-16T13:45:17;16.60;81.50
30379;DHT22;17168;49.164;9.060;2024-02-16T13:47:52;16.70;81.80
30379;DHT22;17168;49.164;9.060;2024-02-16T13:50:24;16.70;82.10
30379;DHT22;17168;49.164;9.060;2024-02-16T13:52:57;16.70;81.90
30379;DHT22;17168;49.164;9.060;2024-02-16T13:55:29;16.70;82.20
30379;DHT22;17168;49.164;9.060;2024-02-16T13:58:01;16.80;81.60
30379;DHT22;17168;49.164;9.060;2024-02-16T14:00:33;16.80;82.10
30379;DHT22;17168;49.164;9.060;2024-02-16T14:03:10;16.80;81.60
30379;DHT22;17168;49.164;9.060;2024-02-16T14:05:44;16.90;82.00
30379;DHT22;17168;49.164;9.060;2024-02-16T14:08:18;16.90;81.80
30379;DHT22;17168;49.164;9.060;2024-02-16T14:10:50;16.90;82.00
30379;DHT22;17168;49.164;9.060;2024-02-16T14:13:22;16.90;82.10
30379;DHT22;17168;49.164;9.060;2024-02-16T14:15:57;16.90;81.70
30379;DHT22;17168;49.164;9.060;2024-02-16T14:18:32;16.90;82.20
30379;DHT22;17168;49.164;9.060;2024-02-16T14:21:07;17.00;82.30
30379;DHT22;17168;49.164;9.060;2024-02-16T14:23:39;17.00;82.20
30379;DHT22;17168;49.164;9.060;2024-02-16T14:26:11;17.10;82.30
30379;DHT22;17168;49.164;9.060;2024-02-16T14:28:43;17.10;82.70
30379;DHT22;17168;49.164;9.060;2024-02-16T14:31:16;17.10;82.00
30379;DHT22;17168;49.164;9.060;2024-02-16T14:33:51;17.20;81.70
30379;DHT22;17168;49.164;9.060;2024-02-16T14:36:24;17.20;80.80
30379;DHT22;17168;49.164;9.060;2024-02-16T14:38:56;17.10;80.60
30379;DHT22;17168;49.164;9.060;2024-02-16T14:41:28;17.10;80.60
30379;DHT22;17168;49.164;9.060;2024-02-16T14:44:01;17.00;80.50
30379;DHT22;17168;49.164;9.060;2024-02-16T14:46:35;16.90;81.10
30379;DHT22;17168;49.164;9.060;2024-02-16T14:49:09;16.90;81.50
30379;DHT22;17168;49.164;9.060;2024-02-16T14:51:42;16.80;81.60
30379;DHT22;17168;49.164;9.060;2024-02-16T14:54:14;16.80;81.50
30379;DHT22;17168;49.164;9.060;2024-02-16T14:56:46;16.70;81.70
30379;DHT22;17168;49.164;9.060;2024-02-16T14:59:22;16.70;81.80
30379;DHT22;17168;49.164;9.060;2024-02-16T15:01:54;16.60;82.00
30379;DHT22;17168;49.164;9.060;2024-02-16T15:04:30;16.60;82.50
30379;DHT22;17168;49.164;9.060;2024-02-16T15:07:02;16.50;82.60
30379;DHT22;17168;49.164;9.060;2024-02-16T15:09:36;16.50;83.20
30379;DHT22;17168;49.164;9.060;2024-02-16T15:12:08;16.50;83.60
30379;DHT22;17168;49.164;9.060;2024-02-16T15:14:40;16.40;83.40
30379;DHT22;17168;49.164;9.060;2024-02-16T15:17:12;16.40;83.60
30379;DHT22;17168;49.164;9.060;2024-02-16T15:19:48;16.40;83.80
30379;DHT22;17168;49.164;9.060;2024-02-16T15:22:20;16.30;84.50
30379;DHT22;17168;49.164;9.060;2024-02-16T15:24:53;16.30;84.70
30379;DHT22;17168;49.164;9.060;2024-02-16T15:27:25;16.20;84.90
30379;DHT22;17168;49.164;9.060;2024-02-16T15:29:58;16.20;85.10
30379;DHT22;17168;49.164;9.060;2024-02-16T15:32:30;16.20;85.40
30379;DHT22;17168;49.164;9.060;2024-02-16T15:35:06;16.10;85.50
30379;DHT22;17168;49.164;9.060;2024-02-16T15:37:39;16.10;86.20
30379;DHT22;17168;49.164;9.060;2024-02-16T15:40:12;16.00;86.50
30379;DHT22;17168;49.164;9.060;2024-02-16T15:42:58;16.00;87.00
30379;DHT22;17168;49.164;9.060;2024-02-16T15:45:32;15.90;87.90
30379;DHT22;17168;49.164;9.060;2024-02-16T15:48:12;15.90;87.70
30379;DHT22;17168;49.164;9.060;2024-02-16T15:50:49;15.80;87.90
30379;DHT22;17168;49.164;9.060;2024-02-16T15:53:26;15.80;87.70
30379;DHT22;17168;49.164;9.060;2024-02-16T15:55:59;15.70;87.60
30379;DHT22;17168;49.164;9.060;2024-02-16T15:58:32;15.70;87.80
30379;DHT22;17168;49.164;9.060;2024-02-16T16:01:04;15.60;88.10
30379;DHT22;17168;49.164;9.060;2024-02-16T16:03:37;15.50;88.60
30379;DHT22;17168;49.164;9.060;2024-02-16T16:06:12;15.50;89.10
30379;DHT22;17168;49.164;9.060;2024-02-16T16:08:44;15.40;89.40
30379;DHT22;17168;49.164;9.060;2024-02-16T16:11:17;15.40;89.80